sensor_id;sensor_type;location;lat;lon;timestamp;P1;durP1;ratioP1;P2;durP2;ratioP2
23394;SDS011;11870;53.084;18.206;2022-12-07T00:01:15;13.10;;;6.13;;
23394;SDS011;11870;53.084;18.206;2022-12-07T00:03:43;10.68;;;6.20;;
23394;SDS011;11870;53.084;18.206;2022-12-07T00:06:11;11.95;;;6.38;;
23394;SDS011;11870;53.084;18.206;2022-12-07T00:08:38;14.52;;;6.85;;
23394;SDS011;11870;53.084;18.206;2022-12-07T00:11:06;16.10;;;7.38;;
23394;SDS011;11870;53.084;18.206;2022-12-07T00:13:34;13.48;;;6.55;;
23394;SDS011;11870;53.084;18.206;2022-12-07T00:16:05;13.77;;;6.55;;
23394;SDS011;11870;53.084;18.206;2022-12-07T00:18:33;16.77;;;7.30;;
23394;SDS011;11870;53.084;18.206;2022-12-07T00:21:00;17.65;;;7.95;;
23394;SDS011;11870;53.084;18.206;2022-12-07T00:23:27;19.30;;;7.80;;
23394;SDS011;11870;53.084;18.206;2022-12-07T00:25:53;14.68;;;7.68;;
23394;SDS011;11870;53.084;18.206;2022-12-07T00:28:19;15.70;;;7.50;;
23394;SDS011;11870;53.084;18.206;2022-12-07T00:30:45;14.98;;;7.15;;
23394;SDS011;11870;53.084;18.206;2022-12-07T00:33:11;17.15;;;7.65;;
23394;SDS011;11870;53.084;18.206;2022-12-07T00:35:37;13.07;;;6.65;;
23394;SDS011;11870;53.084;18.206;2022-12-07T00:38:03;14.50;;;6.85;;
23394;SDS011;11870;53.084;18.206;2022-12-07T00:40:29;18.05;;;7.60;;
23394;SDS011;11870;53.084;18.206;2022-12-07T00:42:55;20.20;;;8.63;;
23394;SDS011;11870;53.084;18.206;2022-12-07T00:45:20;15.80;;;7.70;;
23394;SDS011;11870;53.084;18.206;2022-12-07T00:47:46;16.63;;;7.78;;
23394;SDS011;11870;53.084;18.206;2022-12-07T00:50:12;16.63;;;8.35;;
23394;SDS011;11870;53.084;18.206;2022-12-07T00:52:38;15.70;;;7.40;;
23394;SDS011;11870;53.084;18.206;2022-12-07T00:55:04;19.10;;;7.97;;
23394;SDS011;11870;53.084;18.206;2022-12-07T00:57:30;17.65;;;8.35;;
23394;SDS011;11870;53.084;18.206;2022-12-07T00:59:56;16.02;;;8.13;;
23394;SDS011;11870;53.084;18.206;2022-12-07T01:02:23;14.60;;;7.32;;
23394;SDS011;11870;53.084;18.206;2022-12-07T01:04:49;21.02;;;8.45;;
23394;SDS011;11870;53.084;18.206;2022-12-07T01:07:15;17.38;;;7.70;;
23394;SDS011;11870;53.084;18.206;2022-12-07T01:09:41;20.60;;;7.88;;
23394;SDS011;11870;53.084;18.206;2022-12-07T01:12:07;14.73;;;7.10;;
23394;SDS011;11870;53.084;18.206;2022-12-07T01:14:32;15.73;;;7.13;;
23394;SDS011;11870;53.084;18.206;2022-12-07T01:16:58;14.90;;;7.15;;
23394;SDS011;11870;53.084;18.206;2022-12-07T01:19:24;13.32;;;6.70;;
23394;SDS011;11870;53.084;18.206;2022-12-07T01:21:50;12.05;;;6.35;;
23394;SDS011;11870;53.084;18.206;2022-12-07T01:24:16;14.23;;;6.50;;
23394;SDS011;11870;53.084;18.206;2022-12-07T01:26:42;13.43;;;6.00;;
23394;SDS011;11870;53.084;18.206;2022-12-07T01:29:08;12.10;;;6.25;;
23394;SDS011;11870;53.084;18.206;2022-12-07T01:31:34;14.05;;;6.70;;
23394;SDS011;11870;53.084;18.206;2022-12-07T01:34:00;12.45;;;6.60;;
23394;SDS011;11870;53.084;18.206;2022-12-07T01:38:55;10.60;;;5.85;;
23394;SDS011;11870;53.084;18.206;2022-12-07T01:41:24;11.73;;;6.35;;
23394;SDS011;11870;53.084;18.206;2022-12-07T01:46:36;12.52;;;5.85;;
23394;SDS011;11870;53.084;18.206;2022-12-07T01:49:02;12.07;;;5.97;;
23394;SDS011;11870;53.084;18.206;2022-12-07T01:51:31;10.90;;;5.90;;
23394;SDS011;11870;53.084;18.206;2022-12-07T01:53:57;9.30;;;4.95;;
23394;SDS011;11870;53.084;18.206;2022-12-07T01:56:25;9.50;;;5.18;;
23394;SDS011;11870;53.084;18.206;2022-12-07T01:58:52;11.55;;;5.45;;
23394;SDS011;11870;53.084;18.206;2022-12-07T02:01:20;10.88;;;5.20;;
23394;SDS011;11870;53.084;18.206;2022-12-07T02:03:46;9.18;;;4.97;;
23394;SDS011;11870;53.084;18.206;2022-12-07T02:06:15;8.88;;;4.38;;
23394;SDS011;11870;53.084;18.206;2022-12-07T02:08:44;7.03;;;4.35;;
23394;SDS011;11870;53.084;18.206;2022-12-07T02:11:11;8.73;;;4.85;;
23394;SDS011;11870;53.084;18.206;2022-12-07T02:13:38;9.00;;;4.72;;
23394;SDS011;11870;53.084;18.206;2022-12-07T02:16:13;9.00;;;4.38;;
23394;SDS011;11870;53.084;18.206;2022-12-07T02:24:15;7.13;;;4.00;;
23394;SDS011;11870;53.084;18.206;2022-12-07T02:32:37;9.80;;;4.30;;
23394;SDS011;11870;53.084;18.206;2022-12-07T02:35:12;6.32;;;3.78;;
23394;SDS011;11870;53.084;18.206;2022-12-07T02:40:21;8.43;;;4.47;;
23394;SDS011;11870;53.084;18.206;2022-12-07T02:42:55;8.07;;;4.50;;
23394;SDS011;11870;53.084;18.206;2022-12-07T02:45:36;7.82;;;4.60;;
23394;SDS011;11870;53.084;18.206;2022-12-07T02:48:05;7.85;;;4.28;;
23394;SDS011;11870;53.084;18.206;2022-12-07T02:50:34;8.98;;;4.70;;
23394;SDS011;11870;53.084;18.206;2022-12-07T02:53:00;8.93;;;4.55;;
23394;SDS011;11870;53.084;18.206;2022-12-07T02:55:28;11.07;;;5.00;;
23394;SDS011;11870;53.084;18.206;2022-12-07T02:58:06;10.63;;;4.95;;
23394;SDS011;11870;53.084;18.206;2022-12-07T03:00:50;11.50;;;5.60;;
23394;SDS011;11870;53.084;18.206;2022-12-07T03:03:25;11.70;;;5.30;;
23394;SDS011;11870;53.084;18.206;2022-12-07T03:06:04;13.73;;;5.78;;
23394;SDS011;11870;53.084;18.206;2022-12-07T03:08:38;10.95;;;5.70;;
23394;SDS011;11870;53.084;18.206;2022-12-07T03:11:14;10.68;;;5.97;;
23394;SDS011;11870;53.084;18.206;2022-12-07T03:13:59;14.27;;;6.68;;
23394;SDS011;11870;53.084;18.206;2022-12-07T03:16:31;12.07;;;6.13;;
23394;SDS011;11870;53.084;18.206;2022-12-07T03:19:03;12.80;;;5.82;;
23394;SDS011;11870;53.084;18.206;2022-12-07T03:21:38;15.60;;;7.25;;
23394;SDS011;11870;53.084;18.206;2022-12-07T03:24:08;16.65;;;7.25;;
23394;SDS011;11870;53.084;18.206;2022-12-07T03:26:41;13.98;;;7.10;;
23394;SDS011;11870;53.084;18.206;2022-12-07T03:29:26;15.10;;;7.38;;
23394;SDS011;11870;53.084;18.206;2022-12-07T03:31:59;16.77;;;8.15;;
23394;SDS011;11870;53.084;18.206;2022-12-07T03:34:32;16.33;;;8.38;;
23394;SDS011;11870;53.084;18.206;2022-12-07T03:37:04;22.40;;;8.48;;
23394;SDS011;11870;53.084;18.206;2022-12-07T03:40:01;20.27;;;8.07;;
23394;SDS011;11870;53.084;18.206;2022-12-07T03:42:23;16.80;;;8.45;;
23394;SDS011;11870;53.084;18.206;2022-12-07T03:44:49;17.23;;;8.68;;
23394;SDS011;11870;53.084;18.206;2022-12-07T03:47:22;15.48;;;8.02;;
23394;SDS011;11870;53.084;18.206;2022-12-07T03:50:15;14.75;;;7.07;;
23394;SDS011;11870;53.084;18.206;2022-12-07T03:52:55;14.65;;;7.03;;
23394;SDS011;11870;53.084;18.206;2022-12-07T03:55:32;12.88;;;6.47;;
23394;SDS011;11870;53.084;18.206;2022-12-07T03:58:03;12.55;;;6.50;;
23394;SDS011;11870;53.084;18.206;2022-12-07T04:00:33;13.63;;;6.18;;
23394;SDS011;11870;53.084;18.206;2022-12-07T04:02:59;12.48;;;5.63;;
23394;SDS011;11870;53.084;18.206;2022-12-07T04:05:25;12.45;;;6.18;;
23394;SDS011;11870;53.084;18.206;2022-12-07T04:07:51;11.35;;;5.82;;
23394;SDS011;11870;53.084;18.206;2022-12-07T04:10:17;12.77;;;6.20;;
23394;SDS011;11870;53.084;18.206;2022-12-07T04:12:43;11.82;;;6.07;;
23394;SDS011;11870;53.084;18.206;2022-12-07T04:15:10;10.02;;;6.13;;
23394;SDS011;11870;53.084;18.206;2022-12-07T04:17:36;11.45;;;6.10;;
23394;SDS011;11870;53.084;18.206;2022-12-07T04:20:03;12.50;;;6.50;;
23394;SDS011;11870;53.084;18.206;2022-12-07T04:22:30;10.95;;;5.78;;
23394;SDS011;11870;53.084;18.206;2022-12-07T04:24:56;11.02;;;6.15;;
23394;SDS011;11870;53.084;18.206;2022-12-07T04:27:21;11.38;;;5.53;;
23394;SDS011;11870;53.084;18.206;2022-12-07T04:29:48;10.90;;;5.55;;
23394;SDS011;11870;53.084;18.206;2022-12-07T04:32:13;9.52;;;5.30;;
23394;SDS011;11870;53.084;18.206;2022-12-07T04:34:39;9.23;;;4.88;;
23394;SDS011;11870;53.084;18.206;2022-12-07T04:37:05;12.63;;;5.85;;
23394;SDS011;11870;53.084;18.206;2022-12-07T04:39:32;9.88;;;5.40;;
23394;SDS011;11870;53.084;18.206;2022-12-07T04:41:58;11.88;;;5.22;;
23394;SDS011;11870;53.084;18.206;2022-12-07T04:44:26;9.73;;;5.07;;
23394;SDS011;11870;53.084;18.206;2022-12-07T04:46:52;11.40;;;5.28;;
23394;SDS011;11870;53.084;18.206;2022-12-07T04:49:19;11.05;;;4.97;;
23394;SDS011;11870;53.084;18.206;2022-12-07T04:51:45;9.40;;;5.03;;
23394;SDS011;11870;53.084;18.206;2022-12-07T04:54:12;9.73;;;5.25;;
23394;SDS011;11870;53.084;18.206;2022-12-07T04:56:39;9.50;;;4.68;;
23394;SDS011;11870;53.084;18.206;2022-12-07T04:59:06;9.02;;;4.78;;
23394;SDS011;11870;53.084;18.206;2022-12-07T05:01:32;6.40;;;3.83;;
23394;SDS011;11870;53.084;18.206;2022-12-07T05:03:58;8.20;;;4.20;;
23394;SDS011;11870;53.084;18.206;2022-12-07T05:06:24;7.88;;;4.32;;
23394;SDS011;11870;53.084;18.206;2022-12-07T05:08:51;7.75;;;4.32;;
23394;SDS011;11870;53.084;18.206;2022-12-07T05:11:17;7.53;;;4.07;;
23394;SDS011;11870;53.084;18.206;2022-12-07T05:14:02;7.10;;;4.38;;
23394;SDS011;11870;53.084;18.206;2022-12-07T05:16:29;8.30;;;4.93;;
23394;SDS011;11870;53.084;18.206;2022-12-07T05:18:55;5.97;;;3.95;;
23394;SDS011;11870;53.084;18.206;2022-12-07T05:21:21;7.60;;;4.53;;
23394;SDS011;11870;53.084;18.206;2022-12-07T05:23:48;7.13;;;3.83;;
23394;SDS011;11870;53.084;18.206;2022-12-07T05:26:14;8.82;;;4.88;;
23394;SDS011;11870;53.084;18.206;2022-12-07T05:28:40;6.97;;;4.07;;
23394;SDS011;11870;53.084;18.206;2022-12-07T05:31:05;8.73;;;4.72;;
23394;SDS011;11870;53.084;18.206;2022-12-07T05:33:31;7.47;;;4.40;;
23394;SDS011;11870;53.084;18.206;2022-12-07T05:35:57;9.25;;;4.70;;
23394;SDS011;11870;53.084;18.206;2022-12-07T05:38:23;7.93;;;4.32;;
23394;SDS011;11870;53.084;18.206;2022-12-07T05:40:50;7.07;;;4.22;;
23394;SDS011;11870;53.084;18.206;2022-12-07T05:43:16;8.77;;;4.65;;
23394;SDS011;11870;53.084;18.206;2022-12-07T05:45:42;6.90;;;3.60;;
23394;SDS011;11870;53.084;18.206;2022-12-07T05:48:08;8.02;;;4.53;;
23394;SDS011;11870;53.084;18.206;2022-12-07T05:50:33;7.88;;;3.97;;
23394;SDS011;11870;53.084;18.206;2022-12-07T05:52:59;12.35;;;4.85;;
23394;SDS011;11870;53.084;18.206;2022-12-07T05:55:25;11.07;;;4.43;;
23394;SDS011;11870;53.084;18.206;2022-12-07T05:57:51;11.82;;;5.72;;
23394;SDS011;11870;53.084;18.206;2022-12-07T06:00:35;8.85;;;3.95;;
23394;SDS011;11870;53.084;18.206;2022-12-07T06:03:01;9.40;;;4.50;;
23394;SDS011;11870;53.084;18.206;2022-12-07T06:05:27;11.15;;;4.70;;
23394;SDS011;11870;53.084;18.206;2022-12-07T06:07:53;12.95;;;4.28;;
23394;SDS011;11870;53.084;18.206;2022-12-07T06:10:19;10.15;;;4.63;;
23394;SDS011;11870;53.084;18.206;2022-12-07T06:12:45;11.18;;;5.00;;
23394;SDS011;11870;53.084;18.206;2022-12-07T06:15:11;12.98;;;5.18;;
23394;SDS011;11870;53.084;18.206;2022-12-07T06:17:38;12.77;;;5.47;;
23394;SDS011;11870;53.084;18.206;2022-12-07T06:20:04;10.15;;;4.72;;
23394;SDS011;11870;53.084;18.206;2022-12-07T06:22:32;17.58;;;5.68;;
23394;SDS011;11870;53.084;18.206;2022-12-07T06:24:57;16.33;;;5.60;;
23394;SDS011;11870;53.084;18.206;2022-12-07T06:27:24;15.63;;;6.10;;
23394;SDS011;11870;53.084;18.206;2022-12-07T06:29:50;13.38;;;5.75;;
23394;SDS011;11870;53.084;18.206;2022-12-07T06:32:16;19.15;;;6.40;;
23394;SDS011;11870;53.084;18.206;2022-12-07T06:34:41;16.00;;;5.88;;
23394;SDS011;11870;53.084;18.206;2022-12-07T06:37:07;15.23;;;6.10;;
23394;SDS011;11870;53.084;18.206;2022-12-07T06:39:33;14.65;;;6.18;;
23394;SDS011;11870;53.084;18.206;2022-12-07T06:41:59;13.88;;;6.10;;
23394;SDS011;11870;53.084;18.206;2022-12-07T06:44:25;17.15;;;6.43;;
23394;SDS011;11870;53.084;18.206;2022-12-07T06:46:51;14.63;;;6.40;;
23394;SDS011;11870;53.084;18.206;2022-12-07T06:49:17;19.70;;;6.65;;
23394;SDS011;11870;53.084;18.206;2022-12-07T06:51:43;20.38;;;7.03;;
23394;SDS011;11870;53.084;18.206;2022-12-07T06:54:10;22.83;;;6.82;;
23394;SDS011;11870;53.084;18.206;2022-12-07T06:56:37;16.15;;;6.20;;
23394;SDS011;11870;53.084;18.206;2022-12-07T06:59:04;14.75;;;6.65;;
23394;SDS011;11870;53.084;18.206;2022-12-07T07:01:32;16.27;;;7.15;;
23394;SDS011;11870;53.084;18.206;2022-12-07T07:03:58;20.45;;;8.25;;
23394;SDS011;11870;53.084;18.206;2022-12-07T07:06:24;18.08;;;7.57;;
23394;SDS011;11870;53.084;18.206;2022-12-07T07:08:50;15.73;;;6.93;;
23394;SDS011;11870;53.084;18.206;2022-12-07T07:11:17;16.52;;;7.53;;
23394;SDS011;11870;53.084;18.206;2022-12-07T07:13:43;19.70;;;7.72;;
23394;SDS011;11870;53.084;18.206;2022-12-07T07:16:10;21.45;;;7.95;;
23394;SDS011;11870;53.084;18.206;2022-12-07T07:18:36;20.25;;;8.63;;
23394;SDS011;11870;53.084;18.206;2022-12-07T07:21:02;22.23;;;8.10;;
23394;SDS011;11870;53.084;18.206;2022-12-07T07:23:29;19.02;;;8.02;;
23394;SDS011;11870;53.084;18.206;2022-12-07T07:25:55;22.45;;;8.40;;
23394;SDS011;11870;53.084;18.206;2022-12-07T07:28:21;18.92;;;7.63;;
23394;SDS011;11870;53.084;18.206;2022-12-07T07:30:47;15.85;;;7.68;;
23394;SDS011;11870;53.084;18.206;2022-12-07T07:33:13;20.08;;;7.47;;
23394;SDS011;11870;53.084;18.206;2022-12-07T07:35:40;18.08;;;8.30;;
23394;SDS011;11870;53.084;18.206;2022-12-07T07:38:06;24.25;;;10.32;;
23394;SDS011;11870;53.084;18.206;2022-12-07T07:40:32;52.42;;;18.27;;
23394;SDS011;11870;53.084;18.206;2022-12-07T07:42:58;44.90;;;14.88;;
23394;SDS011;11870;53.084;18.206;2022-12-07T07:45:25;27.05;;;10.45;;
23394;SDS011;11870;53.084;18.206;2022-12-07T07:47:52;21.10;;;8.95;;
23394;SDS011;11870;53.084;18.206;2022-12-07T07:50:18;29.73;;;10.18;;
23394;SDS011;11870;53.084;18.206;2022-12-07T07:52:45;20.77;;;9.52;;
23394;SDS011;11870;53.084;18.206;2022-12-07T07:55:11;19.02;;;9.10;;
23394;SDS011;11870;53.084;18.206;2022-12-07T07:57:37;21.70;;;9.38;;
23394;SDS011;11870;53.084;18.206;2022-12-07T08:00:07;20.17;;;8.48;;
23394;SDS011;11870;53.084;18.206;2022-12-07T08:02:35;23.00;;;8.85;;
23394;SDS011;11870;53.084;18.206;2022-12-07T08:05:01;18.75;;;8.32;;
23394;SDS011;11870;53.084;18.206;2022-12-07T08:07:27;19.92;;;8.45;;
23394;SDS011;11870;53.084;18.206;2022-12-07T08:09:53;21.40;;;9.02;;
23394;SDS011;11870;53.084;18.206;2022-12-07T08:12:19;16.38;;;8.27;;
23394;SDS011;11870;53.084;18.206;2022-12-07T08:14:45;16.38;;;8.48;;
23394;SDS011;11870;53.084;18.206;2022-12-07T08:17:11;18.00;;;8.75;;
23394;SDS011;11870;53.084;18.206;2022-12-07T08:19:38;17.50;;;8.35;;
23394;SDS011;11870;53.084;18.206;2022-12-07T08:22:04;23.48;;;10.00;;
23394;SDS011;11870;53.084;18.206;2022-12-07T08:24:33;24.73;;;11.35;;
23394;SDS011;11870;53.084;18.206;2022-12-07T08:26:59;22.15;;;10.65;;
23394;SDS011;11870;53.084;18.206;2022-12-07T08:29:25;18.95;;;7.85;;
23394;SDS011;11870;53.084;18.206;2022-12-07T08:31:51;16.75;;;8.43;;
23394;SDS011;11870;53.084;18.206;2022-12-07T08:34:17;15.63;;;7.68;;
23394;SDS011;11870;53.084;18.206;2022-12-07T08:36:43;14.75;;;7.28;;
23394;SDS011;11870;53.084;18.206;2022-12-07T08:39:10;16.52;;;7.82;;
23394;SDS011;11870;53.084;18.206;2022-12-07T08:41:36;14.65;;;6.80;;
23394;SDS011;11870;53.084;18.206;2022-12-07T08:44:02;18.02;;;9.48;;
23394;SDS011;11870;53.084;18.206;2022-12-07T08:46:50;15.80;;;7.50;;
23394;SDS011;11870;53.084;18.206;2022-12-07T08:49:19;15.43;;;7.97;;
23394;SDS011;11870;53.084;18.206;2022-12-07T08:51:51;15.45;;;7.30;;
23394;SDS011;11870;53.084;18.206;2022-12-07T08:54:18;14.80;;;7.72;;
23394;SDS011;11870;53.084;18.206;2022-12-07T08:56:45;18.52;;;9.93;;
23394;SDS011;11870;53.084;18.206;2022-12-07T08:59:13;20.08;;;9.82;;
23394;SDS011;11870;53.084;18.206;2022-12-07T09:01:41;16.88;;;8.13;;
23394;SDS011;11870;53.084;18.206;2022-12-07T09:04:07;18.85;;;6.95;;
23394;SDS011;11870;53.084;18.206;2022-12-07T09:06:33;15.18;;;7.32;;
23394;SDS011;11870;53.084;18.206;2022-12-07T09:08:59;15.00;;;6.95;;
23394;SDS011;11870;53.084;18.206;2022-12-07T09:11:26;14.18;;;7.28;;
23394;SDS011;11870;53.084;18.206;2022-12-07T09:13:53;12.30;;;6.60;;
23394;SDS011;11870;53.084;18.206;2022-12-07T09:16:18;15.82;;;7.50;;
23394;SDS011;11870;53.084;18.206;2022-12-07T09:18:44;14.70;;;7.38;;
23394;SDS011;11870;53.084;18.206;2022-12-07T09:21:10;15.48;;;8.15;;
23394;SDS011;11870;53.084;18.206;2022-12-07T09:23:36;14.25;;;7.18;;
23394;SDS011;11870;53.084;18.206;2022-12-07T09:26:03;14.35;;;7.50;;
23394;SDS011;11870;53.084;18.206;2022-12-07T09:28:30;14.00;;;6.80;;
23394;SDS011;11870;53.084;18.206;2022-12-07T09:30:56;13.98;;;7.40;;
23394;SDS011;11870;53.084;18.206;2022-12-07T09:33:22;12.90;;;6.57;;
23394;SDS011;11870;53.084;18.206;2022-12-07T09:35:49;13.50;;;6.97;;
23394;SDS011;11870;53.084;18.206;2022-12-07T09:38:16;12.93;;;6.88;;
23394;SDS011;11870;53.084;18.206;2022-12-07T09:40:44;12.90;;;6.57;;
23394;SDS011;11870;53.084;18.206;2022-12-07T09:43:14;12.20;;;6.50;;
23394;SDS011;11870;53.084;18.206;2022-12-07T09:45:46;12.45;;;7.00;;
23394;SDS011;11870;53.084;18.206;2022-12-07T09:48:18;13.10;;;6.15;;
23394;SDS011;11870;53.084;18.206;2022-12-07T09:50:47;12.85;;;6.53;;
23394;SDS011;11870;53.084;18.206;2022-12-07T09:53:15;12.23;;;6.10;;
23394;SDS011;11870;53.084;18.206;2022-12-07T09:56:01;11.80;;;6.47;;
23394;SDS011;11870;53.084;18.206;2022-12-07T09:58:28;10.48;;;6.20;;
23394;SDS011;11870;53.084;18.206;2022-12-07T10:00:57;11.85;;;6.68;;
23394;SDS011;11870;53.084;18.206;2022-12-07T10:03:31;12.70;;;6.45;;
23394;SDS011;11870;53.084;18.206;2022-12-07T10:05:58;10.35;;;6.38;;
23394;SDS011;11870;53.084;18.206;2022-12-07T10:08:24;13.27;;;6.18;;
23394;SDS011;11870;53.084;18.206;2022-12-07T10:10:52;13.38;;;7.13;;
23394;SDS011;11870;53.084;18.206;2022-12-07T10:13:22;15.90;;;6.75;;
23394;SDS011;11870;53.084;18.206;2022-12-07T10:15:59;14.95;;;7.70;;
23394;SDS011;11870;53.084;18.206;2022-12-07T10:18:33;12.60;;;6.90;;
23394;SDS011;11870;53.084;18.206;2022-12-07T10:23:29;12.98;;;6.47;;
23394;SDS011;11870;53.084;18.206;2022-12-07T10:25:55;11.40;;;6.40;;
23394;SDS011;11870;53.084;18.206;2022-12-07T10:28:21;11.57;;;6.43;;
23394;SDS011;11870;53.084;18.206;2022-12-07T10:30:57;10.45;;;5.80;;
23394;SDS011;11870;53.084;18.206;2022-12-07T10:33:28;10.88;;;5.88;;
23394;SDS011;11870;53.084;18.206;2022-12-07T10:38:47;10.95;;;6.18;;
23394;SDS011;11870;53.084;18.206;2022-12-07T10:41:28;11.88;;;6.40;;
23394;SDS011;11870;53.084;18.206;2022-12-07T10:43:56;11.38;;;6.05;;
23394;SDS011;11870;53.084;18.206;2022-12-07T10:51:54;9.73;;;6.20;;
23394;SDS011;11870;53.084;18.206;2022-12-07T11:00:15;10.65;;;6.45;;
23394;SDS011;11870;53.084;18.206;2022-12-07T11:02:35;10.10;;;5.60;;
23394;SDS011;11870;53.084;18.206;2022-12-07T11:08:44;10.63;;;6.15;;
23394;SDS011;11870;53.084;18.206;2022-12-07T11:11:20;12.02;;;6.68;;
23394;SDS011;11870;53.084;18.206;2022-12-07T11:16:40;14.10;;;6.07;;
23394;SDS011;11870;53.084;18.206;2022-12-07T11:19:30;10.23;;;6.50;;
23394;SDS011;11870;53.084;18.206;2022-12-07T11:22:36;14.80;;;6.65;;
23394;SDS011;11870;53.084;18.206;2022-12-07T11:25:16;11.55;;;6.03;;
23394;SDS011;11870;53.084;18.206;2022-12-07T11:33:48;10.65;;;5.75;;
23394;SDS011;11870;53.084;18.206;2022-12-07T11:42:06;11.43;;;5.63;;
23394;SDS011;11870;53.084;18.206;2022-12-07T11:44:51;11.00;;;5.78;;
23394;SDS011;11870;53.084;18.206;2022-12-07T11:47:29;11.60;;;6.30;;
23394;SDS011;11870;53.084;18.206;2022-12-07T11:50:26;10.88;;;6.22;;
23394;SDS011;11870;53.084;18.206;2022-12-07T12:00:55;11.40;;;5.80;;
23394;SDS011;11870;53.084;18.206;2022-12-07T12:03:34;11.95;;;6.05;;
23394;SDS011;11870;53.084;18.206;2022-12-07T12:06:04;9.50;;;5.38;;
23394;SDS011;11870;53.084;18.206;2022-12-07T12:21:56;10.77;;;5.30;;
23394;SDS011;11870;53.084;18.206;2022-12-07T12:24:50;9.13;;;5.18;;
23394;SDS011;11870;53.084;18.206;2022-12-07T12:27:26;9.93;;;5.93;;
23394;SDS011;11870;53.084;18.206;2022-12-07T12:29:57;10.43;;;6.05;;
23394;SDS011;11870;53.084;18.206;2022-12-07T12:32:41;9.80;;;5.78;;
23394;SDS011;11870;53.084;18.206;2022-12-07T12:35:29;11.25;;;6.05;;
23394;SDS011;11870;53.084;18.206;2022-12-07T12:41:50;11.63;;;6.43;;
23394;SDS011;11870;53.084;18.206;2022-12-07T12:46:50;17.55;;;9.70;;
23394;SDS011;11870;53.084;18.206;2022-12-07T12:51:53;13.43;;;7.53;;
23394;SDS011;11870;53.084;18.206;2022-12-07T12:54:24;17.13;;;8.02;;
23394;SDS011;11870;53.084;18.206;2022-12-07T12:59:31;14.10;;;6.85;;
23394;SDS011;11870;53.084;18.206;2022-12-07T13:15:41;14.73;;;7.15;;
23394;SDS011;11870;53.084;18.206;2022-12-07T13:20:59;13.05;;;7.25;;
23394;SDS011;11870;53.084;18.206;2022-12-07T13:28:41;12.45;;;6.97;;
23394;SDS011;11870;53.084;18.206;2022-12-07T13:34:05;14.13;;;7.10;;
23394;SDS011;11870;53.084;18.206;2022-12-07T13:36:54;12.50;;;6.75;;
23394;SDS011;11870;53.084;18.206;2022-12-07T13:39:22;14.65;;;7.47;;
23394;SDS011;11870;53.084;18.206;2022-12-07T13:41:51;13.63;;;7.18;;
23394;SDS011;11870;53.084;18.206;2022-12-07T13:44:22;12.98;;;7.25;;
23394;SDS011;11870;53.084;18.206;2022-12-07T13:49:46;11.32;;;6.45;;
23394;SDS011;11870;53.084;18.206;2022-12-07T13:52:14;10.43;;;6.38;;
23394;SDS011;11870;53.084;18.206;2022-12-07T13:57:24;12.95;;;6.78;;
23394;SDS011;11870;53.084;18.206;2022-12-07T13:59:51;11.30;;;6.40;;
23394;SDS011;11870;53.084;18.206;2022-12-07T14:02:25;10.57;;;5.68;;
23394;SDS011;11870;53.084;18.206;2022-12-07T14:05:06;11.40;;;6.35;;
23394;SDS011;11870;53.084;18.206;2022-12-07T14:07:32;16.05;;;6.63;;
23394;SDS011;11870;53.084;18.206;2022-12-07T14:10:00;12.20;;;6.50;;
23394;SDS011;11870;53.084;18.206;2022-12-07T14:12:30;13.23;;;6.80;;
23394;SDS011;11870;53.084;18.206;2022-12-07T14:14:58;12.60;;;6.78;;
23394;SDS011;11870;53.084;18.206;2022-12-07T14:17:26;10.60;;;5.65;;
23394;SDS011;11870;53.084;18.206;2022-12-07T14:19:56;12.00;;;6.15;;
23394;SDS011;11870;53.084;18.206;2022-12-07T14:22:29;11.95;;;6.63;;
23394;SDS011;11870;53.084;18.206;2022-12-07T14:25:01;14.05;;;6.90;;
23394;SDS011;11870;53.084;18.206;2022-12-07T14:27:46;12.57;;;6.63;;
23394;SDS011;11870;53.084;18.206;2022-12-07T14:30:21;10.73;;;6.25;;
23394;SDS011;11870;53.084;18.206;2022-12-07T14:32:54;11.07;;;6.13;;
23394;SDS011;11870;53.084;18.206;2022-12-07T14:35:28;11.32;;;6.40;;
23394;SDS011;11870;53.084;18.206;2022-12-07T14:37:55;13.35;;;6.72;;
23394;SDS011;11870;53.084;18.206;2022-12-07T14:40:23;11.75;;;6.85;;
23394;SDS011;11870;53.084;18.206;2022-12-07T14:43:02;11.35;;;6.55;;
23394;SDS011;11870;53.084;18.206;2022-12-07T14:45:31;12.10;;;6.90;;
23394;SDS011;11870;53.084;18.206;2022-12-07T14:47:57;11.82;;;6.50;;
23394;SDS011;11870;53.084;18.206;2022-12-07T14:50:23;12.95;;;6.63;;
23394;SDS011;11870;53.084;18.206;2022-12-07T14:52:56;11.23;;;6.18;;
23394;SDS011;11870;53.084;18.206;2022-12-07T14:55:27;10.57;;;5.97;;
23394;SDS011;11870;53.084;18.206;2022-12-07T14:57:56;11.27;;;6.25;;
23394;SDS011;11870;53.084;18.206;2022-12-07T15:00:24;10.65;;;6.18;;
23394;SDS011;11870;53.084;18.206;2022-12-07T15:02:52;11.20;;;6.05;;
23394;SDS011;11870;53.084;18.206;2022-12-07T15:05:18;12.30;;;6.05;;
23394;SDS011;11870;53.084;18.206;2022-12-07T15:07:45;10.75;;;5.22;;
23394;SDS011;11870;53.084;18.206;2022-12-07T15:10:16;10.15;;;5.47;;
23394;SDS011;11870;53.084;18.206;2022-12-07T15:12:43;9.73;;;5.57;;
23394;SDS011;11870;53.084;18.206;2022-12-07T15:15:09;11.10;;;5.55;;
23394;SDS011;11870;53.084;18.206;2022-12-07T15:17:35;9.80;;;5.53;;
23394;SDS011;11870;53.084;18.206;2022-12-07T15:20:01;9.20;;;5.07;;
23394;SDS011;11870;53.084;18.206;2022-12-07T15:22:29;7.82;;;4.93;;
23394;SDS011;11870;53.084;18.206;2022-12-07T15:24:56;10.38;;;5.60;;
23394;SDS011;11870;53.084;18.206;2022-12-07T15:27:23;8.65;;;5.43;;
23394;SDS011;11870;53.084;18.206;2022-12-07T15:29:48;8.93;;;5.35;;
23394;SDS011;11870;53.084;18.206;2022-12-07T15:32:14;7.95;;;4.95;;
23394;SDS011;11870;53.084;18.206;2022-12-07T15:34:40;9.02;;;5.38;;
23394;SDS011;11870;53.084;18.206;2022-12-07T15:37:07;10.05;;;5.65;;
23394;SDS011;11870;53.084;18.206;2022-12-07T15:39:33;9.85;;;5.57;;
23394;SDS011;11870;53.084;18.206;2022-12-07T15:42:00;10.23;;;6.00;;
23394;SDS011;11870;53.084;18.206;2022-12-07T15:44:25;10.82;;;5.70;;
23394;SDS011;11870;53.084;18.206;2022-12-07T15:47:10;11.50;;;6.05;;
23394;SDS011;11870;53.084;18.206;2022-12-07T15:49:36;11.00;;;6.03;;
23394;SDS011;11870;53.084;18.206;2022-12-07T15:52:02;12.57;;;6.82;;
23394;SDS011;11870;53.084;18.206;2022-12-07T15:54:28;13.55;;;6.90;;
23394;SDS011;11870;53.084;18.206;2022-12-07T15:56:55;13.18;;;6.82;;
23394;SDS011;11870;53.084;18.206;2022-12-07T15:59:21;14.00;;;6.90;;
23394;SDS011;11870;53.084;18.206;2022-12-07T16:01:48;12.27;;;6.78;;
23394;SDS011;11870;53.084;18.206;2022-12-07T16:04:13;13.82;;;6.63;;
23394;SDS011;11870;53.084;18.206;2022-12-07T16:06:40;15.30;;;6.88;;
23394;SDS011;11870;53.084;18.206;2022-12-07T16:09:06;14.55;;;7.07;;
23394;SDS011;11870;53.084;18.206;2022-12-07T16:11:32;16.30;;;7.47;;
23394;SDS011;11870;53.084;18.206;2022-12-07T16:13:58;16.45;;;7.40;;
23394;SDS011;11870;53.084;18.206;2022-12-07T16:16:24;14.02;;;7.15;;
23394;SDS011;11870;53.084;18.206;2022-12-07T16:18:51;16.83;;;7.78;;
23394;SDS011;11870;53.084;18.206;2022-12-07T16:21:18;12.77;;;6.78;;
23394;SDS011;11870;53.084;18.206;2022-12-07T16:23:44;15.23;;;7.22;;
23394;SDS011;11870;53.084;18.206;2022-12-07T16:26:12;17.23;;;7.88;;
23394;SDS011;11870;53.084;18.206;2022-12-07T16:28:40;14.40;;;6.57;;
23394;SDS011;11870;53.084;18.206;2022-12-07T16:31:13;14.35;;;7.45;;